createdAt,value
2017-10-18T00:02:11.978Z,90.57
2017-10-18T00:04:39.467Z,90.65
2017-10-18T00:07:07.007Z,90.59
2017-10-18T00:09:34.504Z,90.45
2017-10-18T00:12:01.999Z,90.28
2017-10-18T00:14:29.522Z,90.20
2017-10-18T00:16:57.080Z,90.08
2017-10-18T00:19:24.567Z,90.27
2017-10-18T00:21:52.116Z,90.58
2017-10-18T00:24:19.685Z,90.64
2017-10-18T00:26:47.176Z,90.80
2017-10-18T00:29:14.715Z,91.16
2017-10-18T00:31:42.260Z,91.05
2017-10-18T00:34:09.763Z,91.22
2017-10-18T00:36:37.284Z,91.40
2017-10-18T00:39:04.775Z,91.24
2017-10-18T00:41:32.271Z,91.06
2017-10-18T00:43:59.783Z,90.77
2017-10-18T00:46:27.279Z,90.32
2017-10-18T00:48:54.779Z,90.09
2017-10-18T00:51:22.307Z,89.97
2017-10-18T00:53:49.817Z,89.88
2017-10-18T00:56:17.308Z,89.95
2017-10-18T00:58:44.844Z,90.05
2017-10-18T01:01:12.343Z,90.21
2017-10-18T01:03:39.837Z,90.25
2017-10-18T01:06:07.472Z,90.62
2017-10-18T01:08:34.977Z,90.73
2017-10-18T01:11:02.469Z,90.68
2017-10-18T01:13:29.997Z,90.71
2017-10-18T01:15:57.483Z,90.74
2017-10-18T01:18:24.979Z,90.55
2017-10-18T01:20:52.521Z,90.56
2017-10-18T01:23:20.016Z,90.65
2017-10-18T01:25:47.512Z,90.66
2017-10-18T01:28:15.043Z,90.57
2017-10-18T01:30:42.551Z,90.34
2017-10-18T01:33:10.041Z,90.20
2017-10-18T01:35:37.576Z,90.14
2017-10-18T01:38:05.066Z,90.20
2017-10-18T01:40:32.555Z,90.19
2017-10-18T01:43:00.084Z,90.03
2017-10-18T01:45:27.572Z,90.09
2017-10-18T01:47:55.165Z,90.33
2017-10-18T01:50:22.687Z,90.73
2017-10-18T01:52:50.182Z,90.86
2017-10-18T01:55:17.729Z,90.98
2017-10-18T01:57:45.279Z,91.11
2017-10-18T02:00:12.776Z,91.16
2017-10-18T02:02:40.271Z,91.17
2017-10-18T02:05:07.809Z,91.10
2017-10-18T02:07:35.335Z,91.04
2017-10-18T02:10:02.828Z,91.04
2017-10-18T02:12:30.349Z,91.04
2017-10-18T02:14:57.850Z,91.05
2017-10-18T02:17:25.349Z,91.24
2017-10-18T02:19:52.883Z,91.67
2017-10-18T02:22:20.371Z,91.71
2017-10-18T02:24:47.858Z,91.80
2017-10-18T02:27:15.391Z,91.63
2017-10-18T02:29:42.883Z,91.42
2017-10-18T02:32:10.376Z,91.55
2017-10-18T02:34:37.911Z,91.87
2017-10-18T02:37:05.428Z,92.19
2017-10-18T02:39:32.923Z,92.28
2017-10-18T02:42:00.439Z,92.36
2017-10-18T02:44:27.943Z,92.32
2017-10-18T02:46:55.436Z,92.25
2017-10-18T02:49:22.987Z,92.27
2017-10-18T02:51:50.548Z,92.31
2017-10-18T02:54:18.045Z,92.38
2017-10-18T02:56:45.697Z,92.64
2017-10-18T02:59:13.193Z,92.71
2017-10-18T03:01:40.684Z,92.65
2017-10-18T03:04:08.214Z,92.41
2017-10-18T03:06:35.703Z,92.31
2017-10-18T03:09:03.201Z,92.22
2017-10-18T03:11:30.726Z,92.49
2017-10-18T03:13:58.213Z,92.62
2017-10-18T03:16:25.709Z,92.62
2017-10-18T03:18:53.233Z,92.68
2017-10-18T03:21:20.728Z,92.93
2017-10-18T03:23:48.228Z,92.92
2017-10-18T03:26:15.751Z,92.85
2017-10-18T03:28:43.251Z,92.80
2017-10-18T03:31:10.811Z,92.95
2017-10-18T03:33:38.308Z,92.99
2017-10-18T03:36:05.822Z,93.07
2017-10-18T03:38:33.347Z,93.00
2017-10-18T03:41:00.940Z,92.99
2017-10-18T03:43:28.503Z,93.03
2017-10-18T03:45:56.033Z,92.98
2017-10-18T03:48:23.550Z,92.92
2017-10-18T03:50:51.080Z,93.00
2017-10-18T03:53:18.601Z,93.00
2017-10-18T03:55:46.097Z,92.70
2017-10-18T03:58:13.637Z,92.92
2017-10-18T04:00:41.128Z,93.26
2017-10-18T04:03:08.623Z,93.51
2017-10-18T04:05:36.164Z,93.51
2017-10-18T04:08:03.655Z,93.71
2017-10-18T04:10:31.148Z,94.01
2017-10-18T04:12:58.675Z,93.71
2017-10-18T04:15:26.171Z,93.92
2017-10-18T04:17:53.670Z,93.99
2017-10-18T04:20:21.283Z,94.22
2017-10-18T04:22:48.776Z,94.35
2017-10-18T04:25:16.272Z,94.29
2017-10-18T04:27:43.800Z,94.28
2017-10-18T04:30:11.292Z,93.95
2017-10-18T04:32:38.788Z,94.13
2017-10-18T04:35:06.322Z,94.20
2017-10-18T04:37:33.903Z,93.96
2017-10-18T04:40:01.445Z,93.86
2017-10-18T04:42:28.984Z,93.95
2017-10-18T04:44:56.543Z,94.20
2017-10-18T04:47:24.045Z,94.13
2017-10-18T04:49:51.568Z,93.78
2017-10-18T04:52:19.064Z,93.34
2017-10-18T04:54:46.559Z,93.09
2017-10-18T04:57:14.105Z,92.98
2017-10-18T04:59:41.606Z,92.70
2017-10-18T05:02:09.103Z,92.44
2017-10-18T05:04:36.641Z,92.38
2017-10-18T05:07:04.142Z,92.48
2017-10-18T05:09:31.627Z,92.59
2017-10-18T05:11:59.168Z,92.55
2017-10-18T05:14:26.657Z,92.30
2017-10-18T05:16:54.155Z,92.25
2017-10-18T05:19:21.684Z,91.96
2017-10-18T05:21:49.187Z,92.02
2017-10-18T05:24:16.676Z,92.06
2017-10-18T05:26:44.204Z,91.91
2017-10-18T05:29:11.695Z,92.36
2017-10-18T05:31:39.268Z,92.47
2017-10-18T05:34:06.831Z,92.53
2017-10-18T05:36:34.332Z,93.12
2017-10-18T05:39:01.838Z,93.06
2017-10-18T05:41:29.372Z,92.88
2017-10-18T05:43:56.864Z,92.78
2017-10-18T05:46:24.359Z,92.77
2017-10-18T05:48:51.904Z,93.25
2017-10-18T05:51:19.408Z,93.16
2017-10-18T05:53:46.960Z,92.81
2017-10-18T05:56:14.488Z,93.18
2017-10-18T05:58:41.983Z,93.43
2017-10-18T06:01:09.488Z,93.07
2017-10-18T06:03:37.042Z,92.95
2017-10-18T06:06:04.527Z,92.99
2017-10-18T06:08:32.062Z,93.27
2017-10-18T06:10:59.708Z,93.30
2017-10-18T06:13:27.200Z,93.03
2017-10-18T06:15:54.723Z,92.91
2017-10-18T06:18:22.268Z,92.88
2017-10-18T06:20:49.760Z,92.14
2017-10-18T06:23:17.255Z,91.95
2017-10-18T06:25:44.787Z,91.83
2017-10-18T06:28:12.280Z,91.58
2017-10-18T06:30:39.784Z,91.31
2017-10-18T06:33:07.322Z,91.12
2017-10-18T06:35:34.820Z,91.07
2017-10-18T06:38:02.317Z,91.05
2017-10-18T06:40:29.871Z,91.15
2017-10-18T06:42:57.371Z,90.88
2017-10-18T06:45:24.859Z,90.57
2017-10-18T06:47:52.393Z,89.78
2017-10-18T06:50:19.896Z,89.46
2017-10-18T06:52:47.396Z,89.44
2017-10-18T06:55:14.950Z,89.03
2017-10-18T06:57:42.444Z,89.03
2017-10-18T07:00:09.977Z,89.13
2017-10-18T07:02:37.501Z,88.93
2017-10-18T07:05:05.085Z,88.43
2017-10-18T07:07:32.643Z,87.88
2017-10-18T07:10:00.128Z,87.63
2017-10-18T07:12:27.655Z,87.08
2017-10-18T07:14:55.144Z,86.94
2017-10-18T07:17:22.637Z,86.84
2017-10-18T07:19:50.162Z,86.53
2017-10-18T07:22:17.662Z,86.34
2017-10-18T07:24:45.256Z,86.15
2017-10-18T07:27:12.752Z,86.43
2017-10-18T07:29:40.243Z,86.57
2017-10-18T07:32:07.783Z,86.52
2017-10-18T07:34:35.295Z,86.57
2017-10-18T07:37:02.850Z,86.15
2017-10-18T07:39:30.387Z,85.88
2017-10-18T07:41:57.958Z,85.86
2017-10-18T07:44:25.457Z,86.11
2017-10-18T07:46:52.986Z,85.93
2017-10-18T07:49:20.544Z,85.77
2017-10-18T07:51:48.040Z,85.76
2017-10-18T07:54:15.656Z,85.61
2017-10-18T07:56:43.160Z,85.23
2017-10-18T07:59:10.663Z,85.19
2017-10-18T08:01:38.845Z,84.92
2017-10-18T08:04:06.333Z,84.92
2017-10-18T08:06:33.834Z,84.76
2017-10-18T08:09:01.384Z,84.59
2017-10-18T08:11:28.890Z,84.02
2017-10-18T08:13:56.387Z,84.06
2017-10-18T08:16:23.900Z,83.75
2017-10-18T08:18:51.397Z,83.32
2017-10-18T08:21:18.919Z,82.97
2017-10-18T08:23:46.475Z,83.00
2017-10-18T08:26:14.035Z,82.90
2017-10-18T08:28:41.570Z,82.65
2017-10-18T08:31:09.066Z,82.60
2017-10-18T08:33:36.563Z,82.68
2017-10-18T08:36:04.174Z,82.37
2017-10-18T08:38:31.670Z,82.53
2017-10-18T08:40:59.160Z,82.49
2017-10-18T08:43:26.692Z,82.06
2017-10-18T08:45:54.185Z,81.39
2017-10-18T08:48:21.959Z,80.78
2017-10-18T08:50:49.536Z,79.84
2017-10-18T08:53:17.033Z,79.92
2017-10-18T08:55:44.526Z,79.65
2017-10-18T08:58:12.042Z,78.93
2017-10-18T09:00:39.564Z,78.11
2017-10-18T09:03:07.063Z,77.40
2017-10-18T09:05:34.588Z,76.73
2017-10-18T09:08:02.088Z,76.14
2017-10-18T09:10:29.580Z,75.94
2017-10-18T09:12:57.119Z,75.11
2017-10-18T09:15:24.620Z,73.70
2017-10-18T09:17:52.111Z,73.65
2017-10-18T09:20:19.635Z,74.46
2017-10-18T09:22:47.124Z,75.56
2017-10-18T09:25:14.644Z,75.60
2017-10-18T09:27:42.134Z,75.78
2017-10-18T09:30:09.654Z,75.36
2017-10-18T09:32:37.195Z,75.25
2017-10-18T09:35:04.790Z,74.74
2017-10-18T09:37:32.288Z,74.92
2017-10-18T09:39:59.823Z,75.20
2017-10-18T09:42:27.311Z,74.75
2017-10-18T09:44:54.800Z,74.25
2017-10-18T09:47:22.331Z,73.87
2017-10-18T09:49:49.829Z,73.46
2017-10-18T09:52:17.319Z,73.93
2017-10-18T09:54:44.845Z,74.22
2017-10-18T09:57:12.340Z,74.81
2017-10-18T09:59:39.859Z,73.22
2017-10-18T10:02:07.373Z,71.92
2017-10-18T10:04:34.868Z,70.18
2017-10-18T10:07:02.405Z,70.63
2017-10-18T10:09:29.998Z,70.41
2017-10-18T10:11:57.501Z,69.77
2017-10-18T10:14:25.103Z,67.15
2017-10-18T10:16:52.601Z,67.99
2017-10-18T10:19:20.098Z,68.71
2017-10-18T10:21:47.637Z,67.78
2017-10-18T10:24:15.135Z,66.93
2017-10-18T10:26:42.628Z,66.23
2017-10-18T10:29:10.159Z,66.97
2017-10-18T10:31:37.650Z,67.68
2017-10-18T10:34:05.144Z,66.46
2017-10-18T10:36:32.743Z,66.64
2017-10-18T10:39:00.301Z,67.35
2017-10-18T10:41:27.791Z,67.40
2017-10-18T10:43:55.414Z,67.23
2017-10-18T10:46:22.968Z,66.45
2017-10-18T10:48:50.468Z,66.78
2017-10-18T10:51:17.988Z,65.68
2017-10-18T10:53:45.479Z,65.98
2017-10-18T10:56:12.967Z,65.87
2017-10-18T10:58:40.488Z,66.44
2017-10-18T11:01:07.986Z,65.80
2017-10-18T11:03:35.561Z,65.74
2017-10-18T11:06:03.055Z,65.03
2017-10-18T11:08:30.538Z,64.26
2017-10-18T11:10:58.098Z,65.33
2017-10-18T11:13:25.608Z,66.39
2017-10-18T11:15:53.104Z,66.32
2017-10-18T11:18:20.636Z,66.11
2017-10-18T11:20:48.132Z,65.66
2017-10-18T11:23:15.627Z,65.04
2017-10-18T11:25:43.155Z,64.73
2017-10-18T11:28:10.645Z,64.69
2017-10-18T11:30:38.132Z,64.82
2017-10-18T11:33:05.779Z,64.63
2017-10-18T11:35:33.347Z,64.31
2017-10-18T11:38:00.836Z,64.43
2017-10-18T11:40:28.580Z,63.79
2017-10-18T11:42:56.072Z,63.39
2017-10-18T11:45:23.561Z,63.16
2017-10-18T11:47:51.104Z,63.04
2017-10-18T11:50:18.603Z,63.37
2017-10-18T11:52:46.091Z,63.49
2017-10-18T11:55:13.715Z,63.40
2017-10-18T11:57:41.208Z,63.26
2017-10-18T12:00:08.701Z,63.47
2017-10-18T12:02:36.236Z,63.32
2017-10-18T12:05:03.732Z,62.97
2017-10-18T12:07:31.302Z,62.94
2017-10-18T12:09:58.844Z,62.86
2017-10-18T12:12:26.337Z,63.07
2017-10-18T12:14:53.831Z,62.78
2017-10-18T12:17:21.375Z,62.53
2017-10-18T12:19:48.864Z,61.74
2017-10-18T12:22:16.372Z,62.21
2017-10-18T12:24:43.908Z,61.71
2017-10-18T12:27:11.400Z,61.74
2017-10-18T12:29:38.899Z,62.05
2017-10-18T12:32:06.416Z,62.24
2017-10-18T12:34:33.927Z,62.40
2017-10-18T12:37:01.467Z,62.68
2017-10-18T12:39:28.964Z,62.00
2017-10-18T12:41:56.518Z,61.68
2017-10-18T12:44:24.098Z,61.62
2017-10-18T12:46:51.647Z,62.50
2017-10-18T12:49:19.140Z,62.02
2017-10-18T12:51:46.678Z,61.19
2017-10-18T12:54:14.170Z,60.89
2017-10-18T12:56:41.667Z,60.76
2017-10-18T12:59:09.183Z,60.95
2017-10-18T13:01:36.684Z,60.68
2017-10-18T13:04:04.214Z,60.26
2017-10-18T13:06:31.804Z,60.92
2017-10-18T13:08:59.298Z,61.41
2017-10-18T13:11:26.852Z,61.13
2017-10-18T13:13:54.355Z,60.66
2017-10-18T13:16:21.860Z,60.76
2017-10-18T13:18:49.417Z,60.96
2017-10-18T13:21:16.911Z,60.67
2017-10-18T13:23:44.407Z,61.33
2017-10-18T13:26:11.972Z,61.62
2017-10-18T13:28:39.541Z,61.63
2017-10-18T13:31:07.042Z,61.94
2017-10-18T13:33:34.671Z,61.50
2017-10-18T13:36:02.160Z,60.68
2017-10-18T13:38:29.656Z,60.07
2017-10-18T13:40:57.252Z,60.82
2017-10-18T13:43:24.755Z,59.60
2017-10-18T13:45:52.263Z,60.17
2017-10-18T13:48:19.801Z,60.65
2017-10-18T13:50:47.291Z,61.62
2017-10-18T13:53:14.783Z,61.58
2017-10-18T13:55:42.331Z,61.86
2017-10-18T13:58:09.840Z,62.02
2017-10-18T14:00:37.339Z,62.29
2017-10-18T14:03:04.872Z,62.76
2017-10-18T14:05:32.370Z,63.31
2017-10-18T14:07:59.877Z,63.46
2017-10-18T14:10:27.431Z,63.73
2017-10-18T14:12:54.931Z,63.94
2017-10-18T14:15:22.431Z,64.43
2017-10-18T14:17:49.972Z,64.61
2017-10-18T14:20:17.569Z,64.63
2017-10-18T14:22:45.101Z,64.69
2017-10-18T14:25:12.640Z,64.77
2017-10-18T14:27:40.238Z,64.74
2017-10-18T14:30:07.736Z,64.08
2017-10-18T14:32:35.263Z,63.44
2017-10-18T14:35:02.765Z,62.37
2017-10-18T14:37:30.256Z,62.46
2017-10-18T14:39:57.771Z,62.75
2017-10-18T14:42:25.336Z,63.04
2017-10-18T14:44:52.836Z,63.02
2017-10-18T14:47:20.328Z,63.26
2017-10-18T14:49:47.972Z,63.37
2017-10-18T14:52:15.469Z,63.74
2017-10-18T14:54:42.967Z,64.16
2017-10-18T14:57:10.561Z,64.34
2017-10-18T14:59:38.077Z,64.16
2017-10-18T15:02:05.604Z,63.97
2017-10-18T15:04:33.241Z,64.06
2017-10-18T15:07:00.787Z,63.53
2017-10-18T15:09:28.295Z,63.23
2017-10-18T15:11:55.782Z,63.47
2017-10-18T15:14:23.353Z,63.61
2017-10-18T15:16:50.925Z,63.33
2017-10-18T15:19:18.415Z,63.86
2017-10-18T15:21:45.956Z,64.70
2017-10-18T15:24:13.456Z,65.01
2017-10-18T15:26:41.051Z,65.55
2017-10-18T15:29:08.587Z,66.09
2017-10-18T15:31:36.081Z,66.90
2017-10-18T15:34:03.572Z,67.54
2017-10-18T15:36:31.107Z,67.94
2017-10-18T15:38:58.612Z,68.86
2017-10-18T15:41:26.103Z,69.28
2017-10-18T15:43:53.635Z,69.86
2017-10-18T15:46:21.125Z,70.11
2017-10-18T15:48:48.614Z,70.64
2017-10-18T15:51:16.177Z,71.15
2017-10-18T15:53:43.677Z,71.96
2017-10-18T15:56:11.175Z,72.37
2017-10-18T15:58:38.911Z,73.04
2017-10-18T16:01:06.401Z,73.64
2017-10-18T16:03:33.904Z,74.57
2017-10-18T16:06:01.465Z,74.66
2017-10-18T16:08:29.028Z,75.21
2017-10-18T16:10:56.529Z,75.52
2017-10-18T16:13:24.091Z,75.94
2017-10-18T16:15:51.624Z,76.19
2017-10-18T16:18:19.119Z,76.60
2017-10-18T16:20:46.669Z,76.97
2017-10-18T16:23:14.181Z,77.30
2017-10-18T16:25:41.669Z,77.67
2017-10-18T16:28:09.216Z,77.74
2017-10-18T16:30:36.713Z,77.89
2017-10-18T16:33:04.225Z,78.17
2017-10-18T16:35:31.743Z,78.61
2017-10-18T16:37:59.266Z,78.78
2017-10-18T16:40:26.756Z,78.96
2017-10-18T16:42:54.387Z,78.82
2017-10-18T16:45:21.883Z,78.73
2017-10-18T16:47:51.540Z,78.37
2017-10-18T16:50:22.034Z,77.67
2017-10-18T16:52:49.812Z,77.47
2017-10-18T16:55:17.318Z,77.25
2017-10-18T16:57:44.903Z,76.97
2017-10-18T17:00:13.576Z,76.83
2017-10-18T17:02:42.777Z,76.91
2017-10-18T17:05:10.332Z,77.10
2017-10-18T17:07:37.831Z,77.16
2017-10-18T17:10:05.324Z,77.47
2017-10-18T17:12:32.852Z,77.55
2017-10-18T17:15:00.338Z,77.63
2017-10-18T17:17:27.827Z,77.58
2017-10-18T17:19:55.351Z,77.91
2017-10-18T17:22:22.839Z,77.63
2017-10-18T17:24:50.447Z,78.01
2017-10-18T17:27:18.006Z,77.87
2017-10-18T17:29:45.571Z,77.87
2017-10-18T17:32:13.066Z,78.19
2017-10-18T17:34:40.560Z,78.85
2017-10-18T17:37:08.119Z,79.27
2017-10-18T17:39:35.620Z,79.50
2017-10-18T17:42:03.116Z,79.39
2017-10-18T17:44:30.640Z,79.62
2017-10-18T17:46:58.134Z,79.92
2017-10-18T17:49:25.621Z,80.09
2017-10-18T17:51:53.164Z,80.17
2017-10-18T17:54:20.658Z,80.33
2017-10-18T17:56:48.215Z,80.39
2017-10-18T17:59:15.733Z,80.51
2017-10-18T18:01:43.232Z,81.17
2017-10-18T18:04:10.882Z,81.35
2017-10-18T18:06:38.372Z,81.87
2017-10-18T18:09:06.029Z,81.96
2017-10-18T18:11:33.568Z,81.94
2017-10-18T18:14:01.055Z,82.53
2017-10-18T18:16:28.546Z,82.78
2017-10-18T18:18:56.140Z,82.72
2017-10-18T18:21:23.640Z,82.77
2017-10-18T18:23:51.164Z,82.70
2017-10-18T18:26:18.695Z,82.99
2017-10-18T18:28:46.189Z,83.10
2017-10-18T18:31:13.684Z,83.16
2017-10-18T18:33:41.275Z,83.29
2017-10-18T18:36:08.770Z,82.87
2017-10-18T18:38:36.262Z,83.04
2017-10-18T18:41:04.096Z,83.20
2017-10-18T18:43:31.601Z,83.55
2017-10-18T18:45:59.195Z,83.38
2017-10-18T18:48:26.773Z,83.39
2017-10-18T18:50:54.328Z,83.35
2017-10-18T18:53:21.822Z,83.38
2017-10-18T18:55:49.538Z,83.42
2017-10-18T18:58:17.039Z,83.59
2017-10-18T19:00:44.557Z,83.74
2017-10-18T19:03:12.075Z,83.83
2017-10-18T19:05:39.576Z,83.70
2017-10-18T19:08:07.090Z,83.74
2017-10-18T19:10:34.632Z,83.49
2017-10-18T19:13:02.128Z,83.52
2017-10-18T19:15:29.621Z,83.43
2017-10-18T19:17:57.183Z,83.38
2017-10-18T19:20:24.695Z,83.42
2017-10-18T19:22:52.189Z,83.16
2017-10-18T19:25:19.736Z,83.22
2017-10-18T19:27:47.244Z,83.26
2017-10-18T19:30:14.737Z,83.26
2017-10-18T19:32:42.271Z,83.36
2017-10-18T19:35:09.764Z,83.14
2017-10-18T19:37:37.329Z,83.23
2017-10-18T19:40:04.875Z,83.29
2017-10-18T19:42:32.373Z,83.21
2017-10-18T19:44:59.876Z,83.31
2017-10-18T19:47:27.472Z,83.36
2017-10-18T19:49:54.960Z,83.05
2017-10-18T19:52:22.483Z,83.21
2017-10-18T19:54:50.043Z,82.85
2017-10-18T19:57:17.535Z,83.14
2017-10-18T19:59:45.020Z,83.17
2017-10-18T20:02:12.538Z,83.01
2017-10-18T20:04:40.043Z,82.97
2017-10-18T20:07:07.568Z,83.01
2017-10-18T20:09:35.057Z,82.96
2017-10-18T20:12:02.566Z,82.92
2017-10-18T20:14:30.087Z,83.08
2017-10-18T20:16:57.585Z,83.05
2017-10-18T20:19:25.070Z,83.07
2017-10-18T20:21:52.697Z,82.80
2017-10-18T20:24:20.205Z,82.92
2017-10-18T20:26:47.800Z,82.77
2017-10-18T20:29:15.324Z,82.82
2017-10-18T20:31:42.916Z,82.77
2017-10-18T20:34:10.412Z,82.82
2017-10-18T20:36:38.245Z,82.83
2017-10-18T20:39:05.805Z,82.73
2017-10-18T20:41:33.304Z,82.87
2017-10-18T20:44:00.916Z,83.06
2017-10-18T20:46:28.418Z,82.95
2017-10-18T20:48:55.918Z,83.13
2017-10-18T20:51:23.456Z,83.18
2017-10-18T20:53:50.950Z,83.18
2017-10-18T20:56:18.502Z,83.37
2017-10-18T20:58:46.374Z,83.41
2017-10-18T21:01:13.863Z,83.41
2017-10-18T21:03:41.365Z,83.45
2017-10-18T21:06:09.162Z,83.77
2017-10-18T21:08:36.661Z,83.79
2017-10-18T21:11:04.163Z,83.99
2017-10-18T21:13:32.161Z,84.08
2017-10-18T21:15:59.669Z,84.36
2017-10-18T21:18:27.156Z,84.18
2017-10-18T21:20:54.756Z,84.57
2017-10-18T21:23:22.274Z,84.77
2017-10-18T21:25:49.948Z,84.65
2017-10-18T21:28:17.595Z,84.93
2017-10-18T21:30:45.098Z,84.64
2017-10-18T21:33:12.592Z,84.56
2017-10-18T21:35:40.280Z,84.71
2017-10-18T21:38:07.777Z,84.77
2017-10-18T21:40:35.274Z,84.88
2017-10-18T21:43:03.080Z,85.08
2017-10-18T21:45:30.615Z,85.05
2017-10-18T21:47:58.108Z,85.25
2017-10-18T21:50:25.644Z,85.30
2017-10-18T21:52:53.139Z,85.59
2017-10-18T21:55:20.631Z,85.53
2017-10-18T21:57:48.230Z,85.72
2017-10-18T22:00:15.772Z,86.01
2017-10-18T22:02:43.274Z,86.20
2017-10-18T22:05:10.893Z,86.31
2017-10-18T22:07:38.389Z,86.59
2017-10-18T22:10:05.884Z,86.65
2017-10-18T22:12:33.561Z,86.79
2017-10-18T22:15:01.054Z,86.86
2017-10-18T22:17:28.547Z,86.93
2017-10-18T22:19:56.340Z,86.89
2017-10-18T22:22:23.827Z,86.95
2017-10-18T22:24:51.356Z,86.74
2017-10-18T22:27:18.920Z,86.81
2017-10-18T22:29:46.407Z,86.92
2017-10-18T22:32:13.935Z,87.02
2017-10-18T22:34:41.475Z,87.10
2017-10-18T22:37:09.052Z,87.23
2017-10-18T22:39:36.578Z,87.47
2017-10-18T22:42:04.172Z,87.71
2017-10-18T22:44:31.734Z,87.90
2017-10-18T22:46:59.235Z,88.00
2017-10-18T22:49:26.851Z,87.92
2017-10-18T22:51:54.344Z,87.99
2017-10-18T22:54:21.864Z,88.14
2017-10-18T22:56:49.438Z,88.25
2017-10-18T22:59:16.992Z,88.24
2017-10-18T23:01:44.488Z,88.51
2017-10-18T23:04:12.021Z,88.46
2017-10-18T23:06:39.521Z,88.71
2017-10-18T23:09:07.014Z,88.65
2017-10-18T23:11:34.689Z,88.69
2017-10-18T23:14:02.182Z,88.70
2017-10-18T23:16:29.726Z,88.61
2017-10-18T23:18:57.274Z,88.63
2017-10-18T23:21:24.770Z,88.65
2017-10-18T23:23:53.199Z,88.91
2017-10-18T23:26:20.839Z,89.03
2017-10-18T23:28:48.418Z,89.13
2017-10-18T23:31:15.914Z,89.13
2017-10-18T23:33:43.541Z,89.29
2017-10-18T23:36:11.101Z,89.19
2017-10-18T23:38:38.593Z,89.31
2017-10-18T23:41:06.136Z,89.55
2017-10-18T23:43:33.632Z,89.56
2017-10-18T23:46:01.122Z,89.78
2017-10-18T23:48:28.685Z,89.76
2017-10-18T23:50:56.210Z,89.95
2017-10-18T23:53:23.712Z,89.92
2017-10-18T23:55:51.228Z,90.03
2017-10-18T23:58:18.820Z,90.00
